sensor_id;sensor_type;location;lat;lon;timestamp;P1;durP1;ratioP1;P2;durP2;ratioP2
12703;SDS011;6416;52.182;7.650;2023-07-29T00:00:55;2.40;;;2.10;;
12703;SDS011;6416;52.182;7.650;2023-07-29T00:03:20;2.63;;;2.10;;
12703;SDS011;6416;52.182;7.650;2023-07-29T00:05:47;2.38;;;2.17;;
12703;SDS011;6416;52.182;7.650;2023-07-29T00:08:13;2.40;;;2.20;;
12703;SDS011;6416;52.182;7.650;2023-07-29T00:10:38;2.38;;;2.17;;
12703;SDS011;6416;52.182;7.650;2023-07-29T00:13:07;2.65;;;2.45;;
12703;SDS011;6416;52.182;7.650;2023-07-29T00:15:32;5.82;;;2.50;;
12703;SDS011;6416;52.182;7.650;2023-07-29T00:17:58;2.97;;;2.78;;
12703;SDS011;6416;52.182;7.650;2023-07-29T00:20:23;2.75;;;2.55;;
12703;SDS011;6416;52.182;7.650;2023-07-29T00:22:49;3.00;;;2.70;;
12703;SDS011;6416;52.182;7.650;2023-07-29T00:25:14;2.63;;;2.42;;
12703;SDS011;6416;52.182;7.650;2023-07-29T00:27:40;2.65;;;2.45;;
12703;SDS011;6416;52.182;7.650;2023-07-29T00:30:06;2.97;;;2.72;;
12703;SDS011;6416;52.182;7.650;2023-07-29T00:32:32;3.05;;;2.30;;
12703;SDS011;6416;52.182;7.650;2023-07-29T00:34:58;2.45;;;2.22;;
12703;SDS011;6416;52.182;7.650;2023-07-29T00:37:23;3.10;;;2.53;;
12703;SDS011;6416;52.182;7.650;2023-07-29T00:39:49;2.60;;;2.40;;
12703;SDS011;6416;52.182;7.650;2023-07-29T00:42:14;2.50;;;2.30;;
12703;SDS011;6416;52.182;7.650;2023-07-29T00:44:39;2.60;;;2.40;;
12703;SDS011;6416;52.182;7.650;2023-07-29T00:47:05;2.45;;;2.20;;
12703;SDS011;6416;52.182;7.650;2023-07-29T00:49:32;2.70;;;2.50;;
12703;SDS011;6416;52.182;7.650;2023-07-29T00:51:57;3.15;;;2.40;;
12703;SDS011;6416;52.182;7.650;2023-07-29T00:54:23;2.40;;;2.20;;
12703;SDS011;6416;52.182;7.650;2023-07-29T00:56:49;2.08;;;1.98;;
12703;SDS011;6416;52.182;7.650;2023-07-29T00:59:14;2.55;;;2.35;;
12703;SDS011;6416;52.182;7.650;2023-07-29T01:01:40;2.22;;;2.10;;
12703;SDS011;6416;52.182;7.650;2023-07-29T01:04:06;2.83;;;2.63;;
12703;SDS011;6416;52.182;7.650;2023-07-29T01:06:38;4.25;;;2.10;;
12703;SDS011;6416;52.182;7.650;2023-07-29T01:14:39;2.22;;;2.03;;
12703;SDS011;6416;52.182;7.650;2023-07-29T01:17:27;2.38;;;2.17;;
12703;SDS011;6416;52.182;7.650;2023-07-29T01:20:01;2.40;;;2.17;;
12703;SDS011;6416;52.182;7.650;2023-07-29T01:22:32;2.13;;;1.92;;
12703;SDS011;6416;52.182;7.650;2023-07-29T01:24:59;3.25;;;2.47;;
12703;SDS011;6416;52.182;7.650;2023-07-29T01:27:25;2.20;;;2.10;;
12703;SDS011;6416;52.182;7.650;2023-07-29T01:29:50;2.42;;;2.22;;
12703;SDS011;6416;52.182;7.650;2023-07-29T01:34:53;2.67;;;2.47;;
12703;SDS011;6416;52.182;7.650;2023-07-29T01:37:26;2.17;;;2.08;;
12703;SDS011;6416;52.182;7.650;2023-07-29T01:39:56;2.17;;;2.08;;
12703;SDS011;6416;52.182;7.650;2023-07-29T01:42:23;2.28;;;2.08;;
12703;SDS011;6416;52.182;7.650;2023-07-29T01:44:49;2.33;;;2.13;;
12703;SDS011;6416;52.182;7.650;2023-07-29T01:47:14;4.30;;;2.28;;
12703;SDS011;6416;52.182;7.650;2023-07-29T01:49:41;2.47;;;2.20;;
12703;SDS011;6416;52.182;7.650;2023-07-29T01:52:06;2.72;;;2.10;;
12703;SDS011;6416;52.182;7.650;2023-07-29T01:54:32;2.50;;;2.30;;
12703;SDS011;6416;52.182;7.650;2023-07-29T01:56:57;2.50;;;2.30;;
12703;SDS011;6416;52.182;7.650;2023-07-29T01:59:23;2.55;;;2.35;;
12703;SDS011;6416;52.182;7.650;2023-07-29T02:01:48;2.60;;;2.40;;
12703;SDS011;6416;52.182;7.650;2023-07-29T02:04:14;4.63;;;2.47;;
12703;SDS011;6416;52.182;7.650;2023-07-29T02:06:39;2.22;;;2.03;;
12703;SDS011;6416;52.182;7.650;2023-07-29T02:09:05;2.40;;;2.20;;
12703;SDS011;6416;52.182;7.650;2023-07-29T02:11:30;2.47;;;2.28;;
12703;SDS011;6416;52.182;7.650;2023-07-29T02:13:56;2.58;;;2.38;;
12703;SDS011;6416;52.182;7.650;2023-07-29T02:16:22;2.75;;;2.55;;
12703;SDS011;6416;52.182;7.650;2023-07-29T02:18:48;2.88;;;2.65;;
12703;SDS011;6416;52.182;7.650;2023-07-29T02:21:13;2.50;;;2.30;;
12703;SDS011;6416;52.182;7.650;2023-07-29T02:23:39;3.65;;;2.83;;
12703;SDS011;6416;52.182;7.650;2023-07-29T02:26:04;3.28;;;2.97;;
12703;SDS011;6416;52.182;7.650;2023-07-29T02:28:30;4.38;;;2.97;;
12703;SDS011;6416;52.182;7.650;2023-07-29T02:33:50;4.05;;;3.05;;
12703;SDS011;6416;52.182;7.650;2023-07-29T02:36:17;3.47;;;3.17;;
12703;SDS011;6416;52.182;7.650;2023-07-29T02:38:42;3.45;;;3.15;;
12703;SDS011;6416;52.182;7.650;2023-07-29T02:41:09;3.25;;;3.05;;
12703;SDS011;6416;52.182;7.650;2023-07-29T02:43:35;3.20;;;3.00;;
12703;SDS011;6416;52.182;7.650;2023-07-29T02:46:01;3.42;;;3.13;;
12703;SDS011;6416;52.182;7.650;2023-07-29T02:48:27;3.67;;;3.40;;
12703;SDS011;6416;52.182;7.650;2023-07-29T02:50:53;4.18;;;3.78;;
12703;SDS011;6416;52.182;7.650;2023-07-29T02:53:18;4.25;;;3.80;;
12703;SDS011;6416;52.182;7.650;2023-07-29T02:55:44;3.85;;;3.55;;
12703;SDS011;6416;52.182;7.650;2023-07-29T02:58:09;4.00;;;3.70;;
12703;SDS011;6416;52.182;7.650;2023-07-29T03:00:35;4.13;;;3.80;;
12703;SDS011;6416;52.182;7.650;2023-07-29T03:03:00;4.03;;;3.72;;
12703;SDS011;6416;52.182;7.650;2023-07-29T03:05:28;4.45;;;4.05;;
12703;SDS011;6416;52.182;7.650;2023-07-29T03:07:54;4.70;;;3.85;;
12703;SDS011;6416;52.182;7.650;2023-07-29T03:10:19;3.90;;;3.60;;
12703;SDS011;6416;52.182;7.650;2023-07-29T03:12:45;4.18;;;3.88;;
12703;SDS011;6416;52.182;7.650;2023-07-29T03:15:11;4.63;;;4.07;;
12703;SDS011;6416;52.182;7.650;2023-07-29T03:17:36;4.55;;;4.07;;
12703;SDS011;6416;52.182;7.650;2023-07-29T03:20:02;4.50;;;4.10;;
12703;SDS011;6416;52.182;7.650;2023-07-29T03:22:27;3.70;;;3.45;;
12703;SDS011;6416;52.182;7.650;2023-07-29T03:24:53;4.43;;;4.03;;
12703;SDS011;6416;52.182;7.650;2023-07-29T03:27:18;4.07;;;3.78;;
12703;SDS011;6416;52.182;7.650;2023-07-29T03:29:44;4.03;;;3.72;;
12703;SDS011;6416;52.182;7.650;2023-07-29T03:32:10;4.25;;;3.88;;
12703;SDS011;6416;52.182;7.650;2023-07-29T03:34:36;4.68;;;3.88;;
12703;SDS011;6416;52.182;7.650;2023-07-29T03:37:01;4.30;;;3.80;;
12703;SDS011;6416;52.182;7.650;2023-07-29T03:39:27;4.03;;;3.72;;
12703;SDS011;6416;52.182;7.650;2023-07-29T03:41:53;4.47;;;4.03;;
12703;SDS011;6416;52.182;7.650;2023-07-29T03:44:18;3.88;;;3.58;;
12703;SDS011;6416;52.182;7.650;2023-07-29T03:46:44;4.03;;;3.60;;
12703;SDS011;6416;52.182;7.650;2023-07-29T03:49:10;4.35;;;3.95;;
12703;SDS011;6416;52.182;7.650;2023-07-29T03:51:35;4.25;;;3.95;;
12703;SDS011;6416;52.182;7.650;2023-07-29T03:54:01;4.43;;;3.85;;
12703;SDS011;6416;52.182;7.650;2023-07-29T03:56:26;4.55;;;4.15;;
12703;SDS011;6416;52.182;7.650;2023-07-29T03:58:52;3.90;;;3.60;;
12703;SDS011;6416;52.182;7.650;2023-07-29T04:01:18;3.90;;;3.60;;
12703;SDS011;6416;52.182;7.650;2023-07-29T04:03:44;4.25;;;3.85;;
12703;SDS011;6416;52.182;7.650;2023-07-29T04:06:10;4.53;;;4.13;;
12703;SDS011;6416;52.182;7.650;2023-07-29T04:08:35;4.47;;;4.07;;
12703;SDS011;6416;52.182;7.650;2023-07-29T04:11:01;4.70;;;4.30;;
12703;SDS011;6416;52.182;7.650;2023-07-29T04:13:26;4.63;;;4.05;;
12703;SDS011;6416;52.182;7.650;2023-07-29T04:15:52;4.20;;;3.90;;
12703;SDS011;6416;52.182;7.650;2023-07-29T04:18:17;4.43;;;4.03;;
12703;SDS011;6416;52.182;7.650;2023-07-29T04:20:43;6.47;;;4.03;;
12703;SDS011;6416;52.182;7.650;2023-07-29T04:23:08;3.83;;;3.53;;
12703;SDS011;6416;52.182;7.650;2023-07-29T04:25:34;5.38;;;4.03;;
12703;SDS011;6416;52.182;7.650;2023-07-29T04:27:59;4.50;;;3.92;;
12703;SDS011;6416;52.182;7.650;2023-07-29T04:30:25;4.57;;;4.18;;
12703;SDS011;6416;52.182;7.650;2023-07-29T04:32:50;4.53;;;4.22;;
12703;SDS011;6416;52.182;7.650;2023-07-29T04:35:16;5.47;;;4.97;;
12703;SDS011;6416;52.182;7.650;2023-07-29T04:37:41;4.20;;;3.90;;
12703;SDS011;6416;52.182;7.650;2023-07-29T04:40:07;6.35;;;4.13;;
12703;SDS011;6416;52.182;7.650;2023-07-29T04:42:33;4.90;;;4.10;;
12703;SDS011;6416;52.182;7.650;2023-07-29T04:44:58;4.68;;;4.32;;
12703;SDS011;6416;52.182;7.650;2023-07-29T04:47:23;3.95;;;3.65;;
12703;SDS011;6416;52.182;7.650;2023-07-29T04:49:49;3.67;;;3.47;;
12703;SDS011;6416;52.182;7.650;2023-07-29T04:52:14;4.63;;;4.25;;
12703;SDS011;6416;52.182;7.650;2023-07-29T04:54:40;4.65;;;4.35;;
12703;SDS011;6416;52.182;7.650;2023-07-29T04:57:06;5.00;;;4.13;;
12703;SDS011;6416;52.182;7.650;2023-07-29T04:59:31;4.78;;;4.20;;
12703;SDS011;6416;52.182;7.650;2023-07-29T05:01:57;5.22;;;4.68;;
12703;SDS011;6416;52.182;7.650;2023-07-29T05:04:22;4.97;;;4.57;;
12703;SDS011;6416;52.182;7.650;2023-07-29T05:06:48;7.25;;;5.03;;
12703;SDS011;6416;52.182;7.650;2023-07-29T05:09:14;4.85;;;4.45;;
12703;SDS011;6416;52.182;7.650;2023-07-29T05:11:40;5.40;;;5.00;;
12703;SDS011;6416;52.182;7.650;2023-07-29T05:14:06;5.15;;;4.68;;
12703;SDS011;6416;52.182;7.650;2023-07-29T05:16:32;5.53;;;5.03;;
12703;SDS011;6416;52.182;7.650;2023-07-29T05:18:57;5.35;;;4.85;;
12703;SDS011;6416;52.182;7.650;2023-07-29T05:21:23;5.43;;;4.93;;
12703;SDS011;6416;52.182;7.650;2023-07-29T05:23:48;5.25;;;4.85;;
12703;SDS011;6416;52.182;7.650;2023-07-29T05:26:13;5.38;;;4.95;;
12703;SDS011;6416;52.182;7.650;2023-07-29T05:28:39;5.63;;;4.45;;
12703;SDS011;6416;52.182;7.650;2023-07-29T05:31:04;5.15;;;4.70;;
12703;SDS011;6416;52.182;7.650;2023-07-29T05:33:30;5.50;;;5.10;;
12703;SDS011;6416;52.182;7.650;2023-07-29T05:35:55;6.10;;;5.60;;
12703;SDS011;6416;52.182;7.650;2023-07-29T05:38:21;5.90;;;5.30;;
12703;SDS011;6416;52.182;7.650;2023-07-29T05:40:49;6.50;;;5.97;;
12703;SDS011;6416;52.182;7.650;2023-07-29T05:43:14;6.45;;;5.93;;
12703;SDS011;6416;52.182;7.650;2023-07-29T05:45:40;6.13;;;5.57;;
12703;SDS011;6416;52.182;7.650;2023-07-29T05:48:05;6.88;;;6.32;;
12703;SDS011;6416;52.182;7.650;2023-07-29T05:50:31;5.82;;;5.43;;
12703;SDS011;6416;52.182;7.650;2023-07-29T05:52:56;6.90;;;6.40;;
12703;SDS011;6416;52.182;7.650;2023-07-29T05:55:22;6.55;;;6.05;;
12703;SDS011;6416;52.182;7.650;2023-07-29T05:57:47;6.13;;;5.32;;
12703;SDS011;6416;52.182;7.650;2023-07-29T06:00:13;6.40;;;5.78;;
12703;SDS011;6416;52.182;7.650;2023-07-29T06:02:39;6.38;;;5.75;;
12703;SDS011;6416;52.182;7.650;2023-07-29T06:05:04;6.28;;;5.78;;
12703;SDS011;6416;52.182;7.650;2023-07-29T06:07:30;6.20;;;5.70;;
12703;SDS011;6416;52.182;7.650;2023-07-29T06:09:55;6.63;;;6.13;;
12703;SDS011;6416;52.182;7.650;2023-07-29T06:12:21;6.40;;;5.90;;
12703;SDS011;6416;52.182;7.650;2023-07-29T06:14:46;7.32;;;6.20;;
12703;SDS011;6416;52.182;7.650;2023-07-29T06:17:12;7.20;;;6.60;;
12703;SDS011;6416;52.182;7.650;2023-07-29T06:19:37;6.70;;;6.07;;
12703;SDS011;6416;52.182;7.650;2023-07-29T06:22:03;7.05;;;6.50;;
12703;SDS011;6416;52.182;7.650;2023-07-29T06:24:29;6.57;;;6.07;;
12703;SDS011;6416;52.182;7.650;2023-07-29T06:26:54;7.13;;;6.60;;
12703;SDS011;6416;52.182;7.650;2023-07-29T06:29:20;7.20;;;6.50;;
12703;SDS011;6416;52.182;7.650;2023-07-29T06:31:45;7.18;;;6.57;;
12703;SDS011;6416;52.182;7.650;2023-07-29T06:34:10;6.15;;;5.65;;
12703;SDS011;6416;52.182;7.650;2023-07-29T06:36:36;6.88;;;6.38;;
12703;SDS011;6416;52.182;7.650;2023-07-29T06:39:01;7.57;;;6.97;;
12703;SDS011;6416;52.182;7.650;2023-07-29T06:41:27;7.43;;;6.93;;
12703;SDS011;6416;52.182;7.650;2023-07-29T06:43:52;7.43;;;6.93;;
12703;SDS011;6416;52.182;7.650;2023-07-29T06:46:21;7.05;;;6.50;;
12703;SDS011;6416;52.182;7.650;2023-07-29T06:48:46;7.25;;;6.65;;
12703;SDS011;6416;52.182;7.650;2023-07-29T06:51:12;7.13;;;6.63;;
12703;SDS011;6416;52.182;7.650;2023-07-29T06:53:37;6.55;;;6.07;;
12703;SDS011;6416;52.182;7.650;2023-07-29T06:56:03;6.65;;;6.05;;
12703;SDS011;6416;52.182;7.650;2023-07-29T06:58:28;8.45;;;6.32;;
12703;SDS011;6416;52.182;7.650;2023-07-29T07:00:54;6.47;;;5.88;;
12703;SDS011;6416;52.182;7.650;2023-07-29T07:03:19;5.55;;;5.05;;
12703;SDS011;6416;52.182;7.650;2023-07-29T07:05:45;5.03;;;4.63;;
12703;SDS011;6416;52.182;7.650;2023-07-29T07:08:10;4.80;;;4.40;;
12703;SDS011;6416;52.182;7.650;2023-07-29T07:10:36;4.83;;;4.43;;
12703;SDS011;6416;52.182;7.650;2023-07-29T07:13:01;3.95;;;3.38;;
12703;SDS011;6416;52.182;7.650;2023-07-29T07:15:27;3.03;;;2.83;;
12703;SDS011;6416;52.182;7.650;2023-07-29T07:17:52;3.05;;;2.55;;
12703;SDS011;6416;52.182;7.650;2023-07-29T07:20:17;2.63;;;2.42;;
12703;SDS011;6416;52.182;7.650;2023-07-29T07:22:43;3.75;;;2.20;;
12703;SDS011;6416;52.182;7.650;2023-07-29T07:25:08;1.92;;;1.80;;
12703;SDS011;6416;52.182;7.650;2023-07-29T07:27:34;1.92;;;1.70;;
12703;SDS011;6416;52.182;7.650;2023-07-29T07:30:00;1.50;;;1.33;;
12703;SDS011;6416;52.182;7.650;2023-07-29T07:32:25;1.50;;;1.40;;
12703;SDS011;6416;52.182;7.650;2023-07-29T07:34:51;1.40;;;1.30;;
12703;SDS011;6416;52.182;7.650;2023-07-29T07:37:16;1.20;;;1.10;;
12703;SDS011;6416;52.182;7.650;2023-07-29T07:39:42;1.20;;;1.10;;
12703;SDS011;6416;52.182;7.650;2023-07-29T07:42:07;1.40;;;1.30;;
12703;SDS011;6416;52.182;7.650;2023-07-29T07:44:33;0.98;;;0.90;;
12703;SDS011;6416;52.182;7.650;2023-07-29T07:46:58;1.42;;;1.05;;
12703;SDS011;6416;52.182;7.650;2023-07-29T07:49:24;1.88;;;1.10;;
12703;SDS011;6416;52.182;7.650;2023-07-29T07:51:49;4.22;;;0.95;;
12703;SDS011;6416;52.182;7.650;2023-07-29T07:54:15;2.70;;;1.30;;
12703;SDS011;6416;52.182;7.650;2023-07-29T07:56:40;1.33;;;0.98;;
12703;SDS011;6416;52.182;7.650;2023-07-29T07:59:06;1.27;;;1.10;;
12703;SDS011;6416;52.182;7.650;2023-07-29T08:01:38;1.73;;;1.23;;
12703;SDS011;6416;52.182;7.650;2023-07-29T08:04:04;2.28;;;1.15;;
12703;SDS011;6416;52.182;7.650;2023-07-29T08:06:30;1.13;;;1.02;;
12703;SDS011;6416;52.182;7.650;2023-07-29T08:08:56;1.63;;;1.00;;
12703;SDS011;6416;52.182;7.650;2023-07-29T08:11:22;1.00;;;1.00;;
12703;SDS011;6416;52.182;7.650;2023-07-29T08:13:47;1.13;;;0.90;;
12703;SDS011;6416;52.182;7.650;2023-07-29T08:16:13;1.10;;;0.95;;
12703;SDS011;6416;52.182;7.650;2023-07-29T08:18:39;1.00;;;1.00;;
12703;SDS011;6416;52.182;7.650;2023-07-29T08:21:04;1.10;;;1.00;;
12703;SDS011;6416;52.182;7.650;2023-07-29T08:23:30;1.50;;;1.08;;
12703;SDS011;6416;52.182;7.650;2023-07-29T08:25:57;1.10;;;0.80;;
12703;SDS011;6416;52.182;7.650;2023-07-29T08:28:24;2.05;;;1.27;;
12703;SDS011;6416;52.182;7.650;2023-07-29T08:30:49;1.08;;;1.00;;
12703;SDS011;6416;52.182;7.650;2023-07-29T08:33:15;1.20;;;1.10;;
12703;SDS011;6416;52.182;7.650;2023-07-29T08:35:40;1.08;;;0.98;;
12703;SDS011;6416;52.182;7.650;2023-07-29T08:38:06;1.63;;;0.90;;
12703;SDS011;6416;52.182;7.650;2023-07-29T08:40:31;0.77;;;0.77;;
12703;SDS011;6416;52.182;7.650;2023-07-29T08:43:00;1.05;;;0.90;;
12703;SDS011;6416;52.182;7.650;2023-07-29T08:45:29;1.17;;;1.02;;
12703;SDS011;6416;52.182;7.650;2023-07-29T08:47:59;1.05;;;0.80;;
12703;SDS011;6416;52.182;7.650;2023-07-29T08:50:29;0.82;;;0.82;;
12703;SDS011;6416;52.182;7.650;2023-07-29T08:52:57;1.55;;;1.10;;
12703;SDS011;6416;52.182;7.650;2023-07-29T08:55:25;1.20;;;1.10;;
12703;SDS011;6416;52.182;7.650;2023-07-29T08:57:51;1.42;;;0.80;;
12703;SDS011;6416;52.182;7.650;2023-07-29T09:00:17;0.90;;;0.90;;
12703;SDS011;6416;52.182;7.650;2023-07-29T09:02:44;0.90;;;0.80;;
12703;SDS011;6416;52.182;7.650;2023-07-29T09:05:09;1.00;;;0.80;;
12703;SDS011;6416;52.182;7.650;2023-07-29T09:07:35;0.73;;;0.68;;
12703;SDS011;6416;52.182;7.650;2023-07-29T09:10:01;0.60;;;0.60;;
12703;SDS011;6416;52.182;7.650;2023-07-29T09:12:27;0.65;;;0.60;;
12703;SDS011;6416;52.182;7.650;2023-07-29T09:14:52;0.80;;;0.80;;
12703;SDS011;6416;52.182;7.650;2023-07-29T09:17:18;2.08;;;0.70;;
12703;SDS011;6416;52.182;7.650;2023-07-29T09:19:47;0.50;;;0.50;;
12703;SDS011;6416;52.182;7.650;2023-07-29T09:22:17;3.33;;;0.43;;
12703;SDS011;6416;52.182;7.650;2023-07-29T09:24:43;0.75;;;0.75;;
12703;SDS011;6416;52.182;7.650;2023-07-29T09:27:12;0.65;;;0.65;;
12703;SDS011;6416;52.182;7.650;2023-07-29T09:29:48;2.55;;;0.70;;
12703;SDS011;6416;52.182;7.650;2023-07-29T09:32:17;0.63;;;0.55;;
12703;SDS011;6416;52.182;7.650;2023-07-29T09:34:44;0.75;;;0.70;;
12703;SDS011;6416;52.182;7.650;2023-07-29T09:37:09;1.33;;;0.70;;
12703;SDS011;6416;52.182;7.650;2023-07-29T09:39:41;0.60;;;0.60;;
12703;SDS011;6416;52.182;7.650;2023-07-29T09:42:11;1.55;;;0.60;;
12703;SDS011;6416;52.182;7.650;2023-07-29T09:44:41;0.77;;;0.50;;
12703;SDS011;6416;52.182;7.650;2023-07-29T09:47:07;0.60;;;0.60;;
12703;SDS011;6416;52.182;7.650;2023-07-29T09:49:34;0.50;;;0.50;;
12703;SDS011;6416;52.182;7.650;2023-07-29T09:52:00;0.75;;;0.50;;
12703;SDS011;6416;52.182;7.650;2023-07-29T09:54:25;0.40;;;0.40;;
12703;SDS011;6416;52.182;7.650;2023-07-29T09:56:51;0.40;;;0.40;;
12703;SDS011;6416;52.182;7.650;2023-07-29T09:59:18;1.00;;;0.55;;
12703;SDS011;6416;52.182;7.650;2023-07-29T10:01:44;0.50;;;0.50;;
12703;SDS011;6416;52.182;7.650;2023-07-29T10:04:10;1.13;;;0.68;;
12703;SDS011;6416;52.182;7.650;2023-07-29T10:06:36;0.40;;;0.40;;
12703;SDS011;6416;52.182;7.650;2023-07-29T10:09:02;2.03;;;0.50;;
12703;SDS011;6416;52.182;7.650;2023-07-29T10:11:30;0.73;;;0.68;;
12703;SDS011;6416;52.182;7.650;2023-07-29T10:13:57;1.17;;;0.63;;
12703;SDS011;6416;52.182;7.650;2023-07-29T10:16:25;0.57;;;0.50;;
12703;SDS011;6416;52.182;7.650;2023-07-29T10:18:51;5.75;;;1.92;;
12703;SDS011;6416;52.182;7.650;2023-07-29T10:21:18;1.83;;;1.00;;
12703;SDS011;6416;52.182;7.650;2023-07-29T10:23:46;0.68;;;0.60;;
12703;SDS011;6416;52.182;7.650;2023-07-29T10:26:14;1.00;;;0.60;;
12703;SDS011;6416;52.182;7.650;2023-07-29T10:28:46;0.85;;;0.50;;
12703;SDS011;6416;52.182;7.650;2023-07-29T10:31:12;1.35;;;0.70;;
12703;SDS011;6416;52.182;7.650;2023-07-29T10:33:40;2.00;;;0.65;;
12703;SDS011;6416;52.182;7.650;2023-07-29T10:36:06;2.05;;;0.47;;
12703;SDS011;6416;52.182;7.650;2023-07-29T10:38:33;0.95;;;0.60;;
12703;SDS011;6416;52.182;7.650;2023-07-29T10:40:59;0.52;;;0.50;;
12703;SDS011;6416;52.182;7.650;2023-07-29T10:43:32;0.75;;;0.70;;
12703;SDS011;6416;52.182;7.650;2023-07-29T10:51:26;0.60;;;0.60;;
12703;SDS011;6416;52.182;7.650;2023-07-29T10:53:55;1.45;;;0.70;;
12703;SDS011;6416;52.182;7.650;2023-07-29T10:56:26;0.57;;;0.57;;
12703;SDS011;6416;52.182;7.650;2023-07-29T11:01:50;1.27;;;0.75;;
12703;SDS011;6416;52.182;7.650;2023-07-29T11:04:30;0.68;;;0.60;;
12703;SDS011;6416;52.182;7.650;2023-07-29T11:09:40;0.60;;;0.60;;
12703;SDS011;6416;52.182;7.650;2023-07-29T11:17:34;0.65;;;0.65;;
12703;SDS011;6416;52.182;7.650;2023-07-29T11:20:02;0.50;;;0.50;;
12703;SDS011;6416;52.182;7.650;2023-07-29T11:22:28;0.90;;;0.60;;
12703;SDS011;6416;52.182;7.650;2023-07-29T11:24:54;0.80;;;0.70;;
12703;SDS011;6416;52.182;7.650;2023-07-29T11:27:19;0.80;;;0.80;;
12703;SDS011;6416;52.182;7.650;2023-07-29T11:29:46;2.75;;;0.80;;
12703;SDS011;6416;52.182;7.650;2023-07-29T11:32:11;0.82;;;0.82;;
12703;SDS011;6416;52.182;7.650;2023-07-29T11:34:37;0.80;;;0.80;;
12703;SDS011;6416;52.182;7.650;2023-07-29T11:37:03;0.77;;;0.77;;
12703;SDS011;6416;52.182;7.650;2023-07-29T11:39:28;0.70;;;0.70;;
12703;SDS011;6416;52.182;7.650;2023-07-29T11:41:54;2.70;;;0.80;;
12703;SDS011;6416;52.182;7.650;2023-07-29T11:44:19;0.70;;;0.70;;
12703;SDS011;6416;52.182;7.650;2023-07-29T11:46:45;1.23;;;0.70;;
12703;SDS011;6416;52.182;7.650;2023-07-29T11:49:10;1.00;;;0.93;;
12703;SDS011;6416;52.182;7.650;2023-07-29T11:51:36;1.20;;;0.60;;
12703;SDS011;6416;52.182;7.650;2023-07-29T11:54:02;0.70;;;0.70;;
12703;SDS011;6416;52.182;7.650;2023-07-29T11:56:27;0.50;;;0.50;;
12703;SDS011;6416;52.182;7.650;2023-07-29T11:59:01;0.90;;;0.80;;
12703;SDS011;6416;52.182;7.650;2023-07-29T12:01:27;0.80;;;0.70;;
12703;SDS011;6416;52.182;7.650;2023-07-29T12:03:53;1.13;;;0.60;;
12703;SDS011;6416;52.182;7.650;2023-07-29T12:06:19;0.95;;;0.80;;
12703;SDS011;6416;52.182;7.650;2023-07-29T12:08:45;0.63;;;0.63;;
12703;SDS011;6416;52.182;7.650;2023-07-29T12:11:11;0.70;;;0.70;;
12703;SDS011;6416;52.182;7.650;2023-07-29T12:13:37;1.17;;;0.63;;
12703;SDS011;6416;52.182;7.650;2023-07-29T12:16:02;2.15;;;1.17;;
12703;SDS011;6416;52.182;7.650;2023-07-29T12:18:35;0.75;;;0.70;;
12703;SDS011;6416;52.182;7.650;2023-07-29T12:21:01;1.08;;;0.70;;
12703;SDS011;6416;52.182;7.650;2023-07-29T12:23:27;0.95;;;0.63;;
12703;SDS011;6416;52.182;7.650;2023-07-29T12:25:57;2.70;;;0.80;;
12703;SDS011;6416;52.182;7.650;2023-07-29T12:28:24;1.23;;;0.90;;
12703;SDS011;6416;52.182;7.650;2023-07-29T12:30:56;0.80;;;0.80;;
12703;SDS011;6416;52.182;7.650;2023-07-29T12:33:37;1.30;;;0.80;;
12703;SDS011;6416;52.182;7.650;2023-07-29T12:36:03;0.68;;;0.68;;
12703;SDS011;6416;52.182;7.650;2023-07-29T12:38:28;1.05;;;0.90;;
12703;SDS011;6416;52.182;7.650;2023-07-29T12:40:54;0.70;;;0.70;;
12703;SDS011;6416;52.182;7.650;2023-07-29T12:43:20;0.70;;;0.70;;
12703;SDS011;6416;52.182;7.650;2023-07-29T12:45:46;1.98;;;0.73;;
12703;SDS011;6416;52.182;7.650;2023-07-29T12:48:14;0.68;;;0.60;;
12703;SDS011;6416;52.182;7.650;2023-07-29T12:50:39;0.70;;;0.70;;
12703;SDS011;6416;52.182;7.650;2023-07-29T12:53:06;2.40;;;0.80;;
12703;SDS011;6416;52.182;7.650;2023-07-29T12:55:32;0.73;;;0.70;;
12703;SDS011;6416;52.182;7.650;2023-07-29T12:57:58;0.70;;;0.70;;
12703;SDS011;6416;52.182;7.650;2023-07-29T13:00:23;0.70;;;0.70;;
12703;SDS011;6416;52.182;7.650;2023-07-29T13:02:49;1.52;;;0.80;;
12703;SDS011;6416;52.182;7.650;2023-07-29T13:05:14;1.48;;;0.90;;
12703;SDS011;6416;52.182;7.650;2023-07-29T13:07:40;1.13;;;0.70;;
12703;SDS011;6416;52.182;7.650;2023-07-29T13:10:06;0.80;;;0.70;;
12703;SDS011;6416;52.182;7.650;2023-07-29T13:12:33;1.15;;;1.00;;
12703;SDS011;6416;52.182;7.650;2023-07-29T13:14:58;0.93;;;0.77;;
12703;SDS011;6416;52.182;7.650;2023-07-29T13:17:24;1.40;;;0.80;;
12703;SDS011;6416;52.182;7.650;2023-07-29T13:19:50;1.00;;;0.85;;
12703;SDS011;6416;52.182;7.650;2023-07-29T13:22:15;1.30;;;0.88;;
12703;SDS011;6416;52.182;7.650;2023-07-29T13:24:41;0.93;;;0.80;;
12703;SDS011;6416;52.182;7.650;2023-07-29T13:27:06;0.95;;;0.80;;
12703;SDS011;6416;52.182;7.650;2023-07-29T13:29:32;0.77;;;0.77;;
12703;SDS011;6416;52.182;7.650;2023-07-29T13:31:57;0.88;;;0.80;;
12703;SDS011;6416;52.182;7.650;2023-07-29T13:34:23;0.70;;;0.70;;
12703;SDS011;6416;52.182;7.650;2023-07-29T13:36:48;0.70;;;0.70;;
12703;SDS011;6416;52.182;7.650;2023-07-29T13:39:14;2.00;;;0.93;;
12703;SDS011;6416;52.182;7.650;2023-07-29T13:41:40;0.80;;;0.80;;
12703;SDS011;6416;52.182;7.650;2023-07-29T13:44:05;0.98;;;0.90;;
12703;SDS011;6416;52.182;7.650;2023-07-29T13:46:31;1.95;;;0.88;;
12703;SDS011;6416;52.182;7.650;2023-07-29T13:48:56;1.77;;;0.98;;
12703;SDS011;6416;52.182;7.650;2023-07-29T13:51:22;0.90;;;0.90;;
12703;SDS011;6416;52.182;7.650;2023-07-29T13:53:47;1.08;;;0.80;;
12703;SDS011;6416;52.182;7.650;2023-07-29T13:56:13;1.15;;;1.00;;
12703;SDS011;6416;52.182;7.650;2023-07-29T13:58:39;0.85;;;0.85;;
12703;SDS011;6416;52.182;7.650;2023-07-29T14:01:05;0.80;;;0.80;;
12703;SDS011;6416;52.182;7.650;2023-07-29T14:03:30;1.23;;;1.10;;
12703;SDS011;6416;52.182;7.650;2023-07-29T14:05:56;0.90;;;0.90;;
12703;SDS011;6416;52.182;7.650;2023-07-29T14:08:21;0.80;;;0.80;;
12703;SDS011;6416;52.182;7.650;2023-07-29T14:10:47;1.23;;;0.80;;
12703;SDS011;6416;52.182;7.650;2023-07-29T14:13:14;1.17;;;0.80;;
12703;SDS011;6416;52.182;7.650;2023-07-29T14:15:39;5.00;;;0.90;;
12703;SDS011;6416;52.182;7.650;2023-07-29T14:18:05;0.90;;;0.90;;
12703;SDS011;6416;52.182;7.650;2023-07-29T14:20:30;0.90;;;0.90;;
12703;SDS011;6416;52.182;7.650;2023-07-29T14:22:56;1.58;;;1.05;;
12703;SDS011;6416;52.182;7.650;2023-07-29T14:25:21;1.80;;;0.90;;
12703;SDS011;6416;52.182;7.650;2023-07-29T14:27:47;1.00;;;1.00;;
12703;SDS011;6416;52.182;7.650;2023-07-29T14:30:12;0.90;;;0.90;;
12703;SDS011;6416;52.182;7.650;2023-07-29T14:32:38;2.78;;;1.10;;
12703;SDS011;6416;52.182;7.650;2023-07-29T14:35:03;0.90;;;0.90;;
12703;SDS011;6416;52.182;7.650;2023-07-29T14:37:32;1.45;;;1.00;;
12703;SDS011;6416;52.182;7.650;2023-07-29T14:39:57;1.85;;;1.00;;
12703;SDS011;6416;52.182;7.650;2023-07-29T14:42:23;1.05;;;0.98;;
12703;SDS011;6416;52.182;7.650;2023-07-29T14:44:49;2.67;;;0.90;;
12703;SDS011;6416;52.182;7.650;2023-07-29T14:47:15;1.48;;;0.90;;
12703;SDS011;6416;52.182;7.650;2023-07-29T14:49:40;0.80;;;0.80;;
12703;SDS011;6416;52.182;7.650;2023-07-29T14:52:06;1.85;;;0.93;;
12703;SDS011;6416;52.182;7.650;2023-07-29T14:54:32;0.85;;;0.85;;
12703;SDS011;6416;52.182;7.650;2023-07-29T14:56:57;2.20;;;0.80;;
12703;SDS011;6416;52.182;7.650;2023-07-29T14:59:23;0.80;;;0.80;;
12703;SDS011;6416;52.182;7.650;2023-07-29T15:01:48;2.92;;;0.98;;
12703;SDS011;6416;52.182;7.650;2023-07-29T15:04:14;0.80;;;0.80;;
12703;SDS011;6416;52.182;7.650;2023-07-29T15:06:39;0.98;;;0.90;;
12703;SDS011;6416;52.182;7.650;2023-07-29T15:09:05;1.50;;;0.85;;
12703;SDS011;6416;52.182;7.650;2023-07-29T15:11:30;0.80;;;0.80;;
12703;SDS011;6416;52.182;7.650;2023-07-29T15:13:56;0.90;;;0.90;;
12703;SDS011;6416;52.182;7.650;2023-07-29T15:16:22;0.90;;;0.90;;
12703;SDS011;6416;52.182;7.650;2023-07-29T15:18:48;1.60;;;1.00;;
12703;SDS011;6416;52.182;7.650;2023-07-29T15:21:13;0.80;;;0.80;;